Time,TemperatureF,DewpointF,PressureIn,WindDirection,WindDirectionDegrees,WindSpeedMPH,WindSpeedGustMPH,Humidity,HourlyPrecipIn,Conditions,Clouds,dailyrainin,SoftwareType,DateUTC
2013-09-08 00:00:00,72.9,68.0,29.89,SSW,211,1.0,-999.0,84,-99.99,,,0.00,weatherlink.com 1.10,2013-09-08 04:00:00,
2013-09-08 00:15:00,72.7,68.0,29.89,SSW,211,0.0,-999.0,85,-99.99,,,0.00,weatherlink.com 1.10,2013-09-08 04:15:00,
2013-09-08 00:30:00,72.4,68.0,29.89,SSW,211,0.0,-999.0,86,-99.99,,,0.00,weatherlink.com 1.10,2013-09-08 04:30:00,
2013-09-08 00:45:00,72.3,68.0,29.90,SSW,211,1.0,-999.0,87,-99.99,,,0.00,weatherlink.com 1.10,2013-09-08 04:45:00,
2013-09-08 01:00:00,72.0,68.0,29.89,SSW,211,0.0,-999.0,87,-99.99,,,0.00,weatherlink.com 1.10,2013-09-08 05:00:00,
2013-09-08 01:15:00,72.1,68.0,29.90,SSW,211,0.0,-999.0,87,-99.99,,,0.00,weatherlink.com 1.10,2013-09-08 05:15:00,
2013-09-08 01:30:00,72.1,68.0,29.91,SSW,211,0.0,-999.0,87,-99.99,,,0.00,weatherlink.com 1.10,2013-09-08 05:30:00,
2013-09-08 01:45:00,72.1,68.0,29.91,SSW,211,0.0,-999.0,87,-99.99,,,0.00,weatherlink.com 1.10,2013-09-08 05:45:00,
2013-09-08 02:00:00,72.1,68.0,29.90,SSW,211,0.0,-999.0,87,-99.99,,,0.00,weatherlink.com 1.10,2013-09-08 06:00:00,
2013-09-08 02:15:00,71.7,68.0,29.90,SSW,211,0.0,-999.0,88,-99.99,,,0.00,weatherlink.com 1.10,2013-09-08 06:15:00,
2013-09-08 02:30:00,71.2,68.0,29.90,SSW,211,0.0,-999.0,89,-99.99,,,0.00,weatherlink.com 1.10,2013-09-08 06:30:00,
2013-09-08 02:45:00,70.9,68.0,29.90,SSW,211,0.0,-999.0,90,-99.99,,,0.00,weatherlink.com 1.10,2013-09-08 06:45:00,
2013-09-08 03:00:00,70.9,68.0,29.90,SSW,211,0.0,-999.0,90,-99.99,,,0.00,weatherlink.com 1.10,2013-09-08 07:00:00,
2013-09-08 03:15:00,70.7,68.0,29.89,SSW,211,0.0,-999.0,90,-99.99,,,0.00,weatherlink.com 1.10,2013-09-08 07:15:00,
2013-09-08 03:30:00,70.5,68.0,29.89,SSW,211,0.0,-999.0,91,-99.99,,,0.00,weatherlink.com 1.10,2013-09-08 07:30:00,
2013-09-08 03:45:00,70.4,68.0,29.89,SSW,211,0.0,-999.0,91,-99.99,,,0.00,weatherlink.com 1.10,2013-09-08 07:45:00,
2013-09-08 04:00:00,70.1,67.0,29.89,SSW,211,0.0,-999.0,91,-99.99,,,0.00,weatherlink.com 1.10,2013-09-08 08:00:00,
2013-09-08 04:15:00,69.5,67.0,29.88,SSW,211,0.0,-999.0,92,-99.99,,,0.00,weatherlink.com 1.10,2013-09-08 08:15:00,
2013-09-08 04:30:00,69.3,67.0,29.88,SSW,211,0.0,-999.0,93,-99.99,,,0.00,weatherlink.com 1.10,2013-09-08 08:30:00,
2013-09-08 04:45:00,69.2,67.0,29.89,SSW,211,0.0,-999.0,93,-99.99,,,0.00,weatherlink.com 1.10,2013-09-08 08:45:00,
2013-09-08 05:00:00,69.1,67.0,29.89,SSW,211,0.0,-999.0,93,-99.99,,,0.00,weatherlink.com 1.10,2013-09-08 09:00:00,
2013-09-08 05:15:00,69.1,67.0,29.89,SSW,211,0.0,-999.0,94,-99.99,,,0.00,weatherlink.com 1.10,2013-09-08 09:15:00,
2013-09-08 05:30:00,68.9,67.0,29.89,SSW,211,0.0,-999.0,94,-99.99,,,0.00,weatherlink.com 1.10,2013-09-08 09:30:00,
2013-09-08 05:45:00,68.6,67.0,29.89,SSW,211,0.0,-999.0,94,-99.99,,,0.00,weatherlink.com 1.10,2013-09-08 09:45:00,
2013-09-08 06:00:00,68.4,67.0,29.88,SSW,211,0.0,-999.0,94,-99.99,,,0.00,weatherlink.com 1.10,2013-09-08 10:00:00,
2013-09-08 06:15:00,68.1,67.0,29.89,SSW,211,0.0,-999.0,95,-99.99,,,0.00,weatherlink.com 1.10,2013-09-08 10:15:00,
2013-09-08 06:31:00,67.6,66.0,29.89,SSW,211,1.0,-999.0,95,-99.99,,,0.00,weatherlink.com 1.10,2013-09-08 10:31:00,
2013-09-08 06:46:00,67.4,66.0,29.89,SSW,211,0.0,-999.0,95,-99.99,,,0.00,weatherlink.com 1.10,2013-09-08 10:46:00,
2013-09-08 07:01:00,67.0,66.0,29.90,SSW,211,0.0,-999.0,95,-99.99,,,0.00,weatherlink.com 1.10,2013-09-08 11:01:00,
2013-09-08 07:16:00,67.4,66.0,29.90,SSW,211,0.0,-999.0,96,-99.99,,,0.00,weatherlink.com 1.10,2013-09-08 11:16:00,
2013-09-08 07:31:00,67.1,66.0,29.91,SSW,211,0.0,-999.0,96,-99.99,,,0.00,weatherlink.com 1.10,2013-09-08 11:31:00,
2013-09-08 07:46:00,67.4,67.0,29.91,SSW,211,1.0,-999.0,97,-99.99,,,0.00,weatherlink.com 1.10,2013-09-08 11:46:00,
2013-09-08 08:01:00,68.0,67.0,29.91,SSW,211,0.0,-999.0,97,-99.99,,,0.00,weatherlink.com 1.10,2013-09-08 12:01:00,
2013-09-08 08:16:00,68.1,67.0,29.91,SSW,211,1.0,-999.0,96,-99.99,,,0.00,weatherlink.com 1.10,2013-09-08 12:16:00,
2013-09-08 08:31:00,69.3,68.0,29.91,SSW,211,0.0,-999.0,96,-99.99,,,0.00,weatherlink.com 1.10,2013-09-08 12:31:00,
2013-09-08 08:46:00,70.4,69.0,29.91,SSW,211,0.0,-999.0,94,-99.99,,,0.00,weatherlink.com 1.10,2013-09-08 12:46:00,
2013-09-08 09:01:00,71.5,69.0,29.91,SSW,211,0.0,-999.0,93,-99.99,,,0.00,weatherlink.com 1.10,2013-09-08 13:01:00,
2013-09-08 09:16:00,72.2,70.0,29.91,SSW,211,0.0,-999.0,92,-99.99,,,0.00,weatherlink.com 1.10,2013-09-08 13:16:00,
2013-09-08 09:31:00,73.3,70.0,29.91,SSW,211,0.0,-999.0,90,-99.99,,,0.00,weatherlink.com 1.10,2013-09-08 13:31:00,
2013-09-08 09:46:00,74.2,70.0,29.91,SSW,211,0.0,-999.0,87,-99.99,,,0.00,weatherlink.com 1.10,2013-09-08 13:46:00,
2013-09-08 10:01:00,74.5,70.0,29.92,SSW,211,0.0,-999.0,86,-99.99,,,0.00,weatherlink.com 1.10,2013-09-08 14:01:00,
2013-09-08 10:16:00,75.2,71.0,29.93,SSW,211,0.0,-999.0,85,-99.99,,,0.00,weatherlink.com 1.10,2013-09-08 14:16:00,
2013-09-08 10:31:00,75.8,71.0,29.93,SSW,211,0.0,-999.0,84,-99.99,,,0.00,weatherlink.com 1.10,2013-09-08 14:31:00,
2013-09-08 10:46:00,76.4,71.0,29.93,SSW,211,1.0,-999.0,83,-99.99,,,0.00,weatherlink.com 1.10,2013-09-08 14:46:00,
2013-09-08 11:01:00,76.9,71.0,29.93,ESE,106,1.0,-999.0,81,-99.99,,,0.00,weatherlink.com 1.10,2013-09-08 15:01:00,
2013-09-08 11:16:00,77.1,71.0,29.93,NE,42,2.0,-999.0,82,-99.99,,,0.00,weatherlink.com 1.10,2013-09-08 15:16:00,
2013-09-08 11:31:00,78.0,70.0,29.92,East,90,2.0,-999.0,77,-99.99,,,0.00,weatherlink.com 1.10,2013-09-08 15:31:00,
2013-09-08 11:46:00,78.2,70.0,29.92,NE,44,3.0,-999.0,77,-99.99,,,0.00,weatherlink.com 1.10,2013-09-08 15:46:00,
2013-09-08 12:01:00,78.9,71.0,29.93,ENE,69,4.0,-999.0,76,-99.99,,,0.00,weatherlink.com 1.10,2013-09-08 16:01:00,
2013-09-08 12:16:00,79.2,71.0,29.92,East,98,5.0,-999.0,77,-99.99,,,0.00,weatherlink.com 1.10,2013-09-08 16:16:00,
2013-09-08 12:31:00,80.0,72.0,29.92,ENE,66,4.0,-999.0,76,-99.99,,,0.00,weatherlink.com 1.10,2013-09-08 16:31:00,
2013-09-08 12:46:00,81.0,72.0,29.92,East,86,2.0,-999.0,75,-99.99,,,0.00,weatherlink.com 1.10,2013-09-08 16:46:00,
2013-09-08 13:01:00,81.9,72.0,29.92,ESE,102,4.0,-999.0,72,-99.99,,,0.00,weatherlink.com 1.10,2013-09-08 17:01:00,
2013-09-08 13:16:00,82.5,72.0,29.92,ESE,105,2.0,-999.0,71,-99.99,,,0.00,weatherlink.com 1.10,2013-09-08 17:16:00,
2013-09-08 13:31:00,83.5,72.0,29.91,ESE,109,0.0,-999.0,68,-99.99,,,0.00,weatherlink.com 1.10,2013-09-08 17:31:00,
2013-09-08 13:46:00,85.0,72.0,29.91,ESE,107,2.0,-999.0,65,-99.99,,,0.00,weatherlink.com 1.10,2013-09-08 17:46:00,
2013-09-08 14:01:00,85.4,72.0,29.91,East,81,5.0,-999.0,64,-99.99,,,0.00,weatherlink.com 1.10,2013-09-08 18:01:00,
2013-09-08 14:16:00,85.2,72.0,29.91,SE,146,0.0,-999.0,65,-99.99,,,0.00,weatherlink.com 1.10,2013-09-08 18:16:00,
2013-09-08 14:32:00,87.3,72.0,29.91,South,180,2.0,-999.0,61,-99.99,,,0.00,weatherlink.com 1.10,2013-09-08 18:32:00,
2013-09-08 14:47:00,87.2,71.0,29.91,SE,129,2.0,-999.0,59,-99.99,,,0.00,weatherlink.com 1.10,2013-09-08 18:47:00,
2013-09-08 15:02:00,87.5,72.0,29.90,East,89,5.0,-999.0,60,-99.99,,,0.00,weatherlink.com 1.10,2013-09-08 19:02:00,
2013-09-08 15:17:00,85.6,71.0,29.90,East,92,2.0,-999.0,62,-99.99,,,0.00,weatherlink.com 1.10,2013-09-08 19:17:00,
2013-09-08 15:32:00,86.2,72.0,29.90,ESE,105,2.0,-999.0,63,-99.99,,,0.00,weatherlink.com 1.10,2013-09-08 19:32:00,
2013-09-08 15:47:00,85.6,72.0,29.89,ENE,69,3.0,-999.0,63,-99.99,,,0.00,weatherlink.com 1.10,2013-09-08 19:47:00,
2013-09-08 16:02:00,85.6,72.0,29.89,ENE,78,2.0,-999.0,63,-99.99,,,0.00,weatherlink.com 1.10,2013-09-08 20:02:00,
2013-09-08 16:17:00,86.4,71.0,29.89,East,79,1.0,-999.0,61,-99.99,,,0.00,weatherlink.com 1.10,2013-09-08 20:17:00,
2013-09-08 16:32:00,87.1,70.0,29.88,SSE,159,2.0,-999.0,58,-99.99,,,0.00,weatherlink.com 1.10,2013-09-08 20:32:00,
2013-09-08 16:47:00,87.3,72.0,29.88,East,96,0.0,-999.0,60,-99.99,,,0.00,weatherlink.com 1.10,2013-09-08 20:47:00,
2013-09-08 17:02:00,86.6,72.0,29.87,East,84,0.0,-999.0,61,-99.99,,,0.00,weatherlink.com 1.10,2013-09-08 21:02:00,
2013-09-08 17:17:00,86.6,72.0,29.87,East,90,2.0,-999.0,61,-99.99,,,0.00,weatherlink.com 1.10,2013-09-08 21:17:00,
2013-09-08 17:32:00,86.9,71.0,29.86,East,85,2.0,-999.0,59,-99.99,,,0.00,weatherlink.com 1.10,2013-09-08 21:32:00,
2013-09-08 17:47:00,87.1,71.0,29.86,East,85,0.0,-999.0,59,-99.99,,,0.00,weatherlink.com 1.10,2013-09-08 21:47:00,
2013-09-08 18:02:00,87.6,72.0,29.86,ESE,111,2.0,-999.0,60,-99.99,,,0.00,weatherlink.com 1.10,2013-09-08 22:02:00,
2013-09-08 18:17:00,86.8,72.0,29.87,ESE,117,4.0,-999.0,61,-99.99,,,0.00,weatherlink.com 1.10,2013-09-08 22:17:00,
2013-09-08 18:32:00,85.0,71.0,29.86,ESE,117,0.0,-999.0,64,-99.99,,,0.00,weatherlink.com 1.10,2013-09-08 22:32:00,
2013-09-08 18:47:00,84.3,72.0,29.87,ESE,117,0.0,-999.0,66,-99.99,,,0.00,weatherlink.com 1.10,2013-09-08 22:47:00,
2013-09-08 19:02:00,83.5,72.0,29.87,ESE,117,0.0,-999.0,68,-99.99,,,0.00,weatherlink.com 1.10,2013-09-08 23:02:00,
2013-09-08 19:17:00,83.1,72.0,29.87,ESE,117,1.0,-999.0,69,-99.99,,,0.00,weatherlink.com 1.10,2013-09-08 23:17:00,
2013-09-08 19:32:00,82.7,72.0,29.87,ESE,117,0.0,-999.0,70,-99.99,,,0.00,weatherlink.com 1.10,2013-09-08 23:32:00,
2013-09-08 19:47:00,82.0,73.0,29.88,South,188,0.0,-999.0,74,-99.99,,,0.00,weatherlink.com 1.10,2013-09-08 23:47:00,
2013-09-08 20:02:00,81.0,73.0,29.88,East,85,3.0,-999.0,76,-99.99,,,0.00,weatherlink.com 1.10,2013-09-09 00:02:00,
2013-09-08 20:17:00,79.8,72.0,29.89,ENE,57,3.0,-999.0,76,-99.99,,,0.00,weatherlink.com 1.10,2013-09-09 00:17:00,
2013-09-08 20:32:00,78.9,72.0,29.90,East,83,3.0,-999.0,78,-99.99,,,0.00,weatherlink.com 1.10,2013-09-09 00:32:00,
2013-09-08 20:47:00,78.1,71.0,29.90,East,86,1.0,-999.0,79,-99.99,,,0.00,weatherlink.com 1.10,2013-09-09 00:47:00,
2013-09-08 21:02:00,77.1,71.0,29.90,East,82,0.0,-999.0,80,-99.99,,,0.00,weatherlink.com 1.10,2013-09-09 01:02:00,
2013-09-08 21:17:00,76.2,70.0,29.90,East,90,1.0,-999.0,82,-99.99,,,0.00,weatherlink.com 1.10,2013-09-09 01:17:00,
2013-09-08 21:32:00,75.4,70.0,29.90,East,90,0.0,-999.0,83,-99.99,,,0.00,weatherlink.com 1.10,2013-09-09 01:32:00,
2013-09-08 21:47:00,74.6,70.0,29.91,East,90,0.0,-999.0,84,-99.99,,,0.00,weatherlink.com 1.10,2013-09-09 01:47:00,
2013-09-08 22:02:00,74.1,69.0,29.91,East,90,4.0,-999.0,85,-99.99,,,0.00,weatherlink.com 1.10,2013-09-09 02:02:00,
2013-09-08 22:17:00,73.7,69.0,29.91,East,92,1.0,-999.0,86,-99.99,,,0.00,weatherlink.com 1.10,2013-09-09 02:17:00,
2013-09-08 22:32:00,73.5,69.0,29.91,East,88,1.0,-999.0,86,-99.99,,,0.00,weatherlink.com 1.10,2013-09-09 02:32:00,
2013-09-08 22:47:00,73.2,69.0,29.92,East,82,2.0,-999.0,86,-99.99,,,0.00,weatherlink.com 1.10,2013-09-09 02:47:00,
2013-09-08 23:02:00,72.8,68.0,29.92,East,88,3.0,-999.0,86,-99.99,,,0.00,weatherlink.com 1.10,2013-09-09 03:02:00,
2013-09-08 23:17:00,72.5,68.0,29.92,East,94,4.0,-999.0,86,-99.99,,,0.00,weatherlink.com 1.10,2013-09-09 03:17:00,
2013-09-08 23:32:00,72.1,68.0,29.92,East,100,5.0,-999.0,87,-99.99,,,0.00,weatherlink.com 1.10,2013-09-09 03:32:00,
2013-09-08 23:47:00,71.6,68.0,29.92,ENE,78,2.0,-999.0,87,-99.99,,,0.00,weatherlink.com 1.10,2013-09-09 03:47:00,